Time;durP1;ratioP1;P1;durP2;ratioP2;P2;SDS_P1;SDS_P2;PMS_P1;PMS_P2;Temp;Humidity;BMP_temperature;BMP_pressure;BME280_temperature;BME280_humidity;BME280_pressure;Samples;Min_cycle;Max_cycle;Signal;HPM_P1;HPM_P2
2022/01/30 00:00:19;;;;;;;31.52;15.13;;;3.30;90.30;;;;;;5112810;28;20032;-70
2022/01/30 00:02:45;;;;;;;29.02;15.20;;;3.40;90.00;;;;;;5114187;28;20020;-74
2022/01/30 00:05:11;;;;;;;32.38;14.68;;;3.40;90.40;;;;;;5113692;28;20035;-71
2022/01/30 00:07:37;;;;;;;28.58;14.63;;;3.40;91.30;;;;;;5113522;28;20012;-73
2022/01/30 00:10:07;;;;;;;25.52;12.55;;;3.40;90.30;;;;;;5114145;28;20088;-71
2022/01/30 00:12:44;;;;;;;27.30;11.00;;;3.40;90.00;;;;;;5113903;28;20107;-73
2022/01/30 00:15:11;;;;;;;22.20;10.63;;;3.40;89.30;;;;;;5113981;28;20106;-75
2022/01/30 00:17:44;;;;;;;26.98;11.90;;;3.40;88.20;;;;;;5113904;28;20115;-76
2022/01/30 00:20:23;;;;;;;22.15;9.73;;;3.40;89.30;;;;;;5113802;28;20028;-76
2022/01/30 00:25:19;;;;;;;20.25;9.85;;;3.50;86.30;;;;;;5113511;28;20039;-75
2022/01/30 00:30:40;;;;;;;17.63;8.82;;;3.50;86.30;;;;;;5030661;28;20615;-75
2022/01/30 00:33:06;;;;;;;24.25;10.25;;;3.60;84.50;;;;;;5030886;28;20026;-75
2022/01/30 00:35:33;;;;;;;22.30;10.18;;;3.60;83.50;;;;;;5032522;28;20182;-77
2022/01/30 00:38:00;;;;;;;19.02;8.18;;;3.60;83.60;;;;;;5029636;28;20533;-76
2022/01/30 00:40:26;;;;;;;21.70;7.55;;;3.60;82.30;;;;;;5030554;28;20156;-76
2022/01/30 00:42:52;;;;;;;15.75;8.10;;;3.70;81.10;;;;;;5030035;28;20480;-76
2022/01/30 00:45:18;;;;;;;16.63;8.35;;;3.70;80.30;;;;;;5029902;28;20041;-73
2022/01/30 00:47:45;;;;;;;19.63;9.18;;;3.70;79.70;;;;;;5030150;28;20073;-75
2022/01/30 00:50:11;;;;;;;21.40;9.25;;;3.70;79.80;;;;;;5030518;28;20491;-75
2022/01/30 00:52:37;;;;;;;19.33;8.02;;;3.80;79.40;;;;;;5032633;28;20032;-75
2022/01/30 00:55:04;;;;;;;18.52;8.30;;;3.80;79.70;;;;;;5030491;28;20041;-75
2022/01/30 00:57:30;;;;;;;18.95;8.70;;;3.80;80.90;;;;;;5032856;28;20034;-75
2022/01/30 00:59:56;;;;;;;18.70;8.82;;;3.70;80.70;;;;;;5032013;28;20044;-73
2022/01/30 01:02:22;;;;;;;23.23;9.07;;;3.70;80.70;;;;;;5030154;28;20022;-77
2022/01/30 01:04:48;;;;;;;17.88;7.75;;;3.70;81.80;;;;;;5030671;28;20041;-75
2022/01/30 01:07:19;;;;;;;20.33;8.60;;;3.70;80.70;;;;;;5077856;28;20035;-76
2022/01/30 01:10:04;;;;;;;21.08;9.55;;;3.70;81.70;;;;;;5094884;28;20481;-77
2022/01/30 01:12:51;;;;;;;23.75;10.63;;;3.80;81.10;;;;;;5113648;28;20098;-77
2022/01/30 01:25:55;;;;;;;24.98;12.30;;;3.50;84.10;;;;;;5112948;28;20038;-74
2022/01/30 01:28:21;;;;;;;25.88;11.85;;;3.50;82.80;;;;;;5094312;28;20442;-73
2022/01/30 01:30:46;;;;;;;21.20;10.75;;;3.50;82.40;;;;;;5112919;28;20028;-75
2022/01/30 01:33:14;;;;;;;34.72;16.83;;;3.30;82.70;;;;;;5094265;28;20034;-72
2022/01/30 01:35:40;;;;;;;41.65;23.58;;;3.20;84.10;;;;;;5112839;28;20385;-75
2022/01/30 01:38:11;;;;;;;47.95;26.17;;;3.10;84.60;;;;;;5093914;28;20046;-72
2022/01/30 01:40:44;;;;;;;45.03;22.60;;;3.00;85.20;;;;;;5112451;28;20039;-72
2022/01/30 01:43:10;;;;;;;65.80;33.70;;;2.90;85.80;;;;;;5104249;28;20465;-74
2022/01/30 01:45:39;;;;;;;65.90;38.85;;;2.90;86.70;;;;;;5094136;28;20031;-74
2022/01/30 01:48:14;;;;;;;39.58;21.25;;;2.80;88.70;;;;;;5077211;28;20035;-74
2022/01/30 01:50:44;;;;;;;39.47;16.67;;;2.70;88.40;;;;;;5112573;28;20102;-76
2022/01/30 01:53:14;;;;;;;32.80;19.65;;;2.60;88.90;;;;;;5094096;28;20027;-76
2022/01/30 01:55:43;;;;;;;32.65;16.77;;;2.60;90.20;;;;;;5094123;28;20028;-74
2022/01/30 01:58:18;;;;;;;74.53;36.95;;;2.60;89.90;;;;;;5094029;28;20024;-74
2022/01/30 02:01:03;;;;;;;55.47;28.55;;;2.50;89.80;;;;;;5112318;28;20132;-73
2022/01/30 02:03:29;;;;;;;46.97;21.33;;;2.50;90.30;;;;;;5093851;28;20031;-75
2022/01/30 02:06:00;;;;;;;36.33;20.92;;;2.50;90.10;;;;;;5112222;28;20023;-74
2022/01/30 02:11:02;;;;;;;42.65;20.38;;;2.60;89.80;;;;;;5093485;28;20484;-74
2022/01/30 02:24:39;;;;;;;56.75;30.55;;;2.70;91.10;;;;;;5012583;28;20037;-74
2022/01/30 02:27:06;;;;;;;65.63;34.05;;;2.70;91.20;;;;;;5012423;28;20072;-73
2022/01/30 02:29:32;;;;;;;66.53;31.58;;;2.70;91.70;;;;;;5028949;28;20683;-74
2022/01/30 02:32:00;;;;;;;50.38;24.88;;;2.70;91.90;;;;;;5028906;28;20037;-76
2022/01/30 02:34:27;;;;;;;68.45;32.58;;;2.70;92.10;;;;;;5012602;28;20034;-70
2022/01/30 02:36:54;;;;;;;58.40;31.73;;;2.70;92.80;;;;;;5012478;28;20419;-77
2022/01/30 02:39:22;;;;;;;55.55;28.77;;;2.70;93.00;;;;;;5010832;28;20030;-77
2022/01/30 02:41:48;;;;;;;53.10;29.00;;;2.70;93.30;;;;;;5009403;28;20054;-76
2022/01/30 02:47:36;;;;;;;63.83;33.97;;;2.70;94.80;;;;;;4973232;28;20042;-75
2022/01/30 02:52:36;;;;;;;54.55;27.02;;;2.70;96.60;;;;;;4992403;28;20120;-75
2022/01/30 02:55:04;;;;;;;41.95;24.30;;;2.70;97.30;;;;;;5029411;28;20081;-75
2022/01/30 02:57:30;;;;;;;41.38;22.80;;;2.60;98.50;;;;;;5012328;28;20514;-76
2022/01/30 02:59:56;;;;;;;36.13;19.45;;;2.70;99.90;;;;;;5029047;28;20079;-75
2022/01/30 03:02:22;;;;;;;31.38;17.27;;;2.60;99.90;;;;;;5032589;28;20108;-74
2022/01/30 03:04:48;;;;;;;29.35;14.63;;;2.60;99.90;;;;;;5032738;28;20219;-74
2022/01/30 03:07:14;;;;;;;25.70;13.75;;;2.60;99.90;;;;;;5032420;28;20120;-75
2022/01/30 03:09:50;;;;;;;28.02;12.18;;;2.60;99.90;;;;;;5029621;28;20038;-75
2022/01/30 03:12:17;;;;;;;25.58;12.27;;;2.50;99.90;;;;;;5025417;28;20033;-75
2022/01/30 03:14:43;;;;;;;25.40;13.48;;;2.50;99.90;;;;;;5033859;28;20044;-75
2022/01/30 03:17:09;;;;;;;27.05;14.68;;;2.60;99.90;;;;;;5024744;28;20048;-74
2022/01/30 03:19:35;;;;;;;28.50;16.85;;;2.60;99.90;;;;;;5032594;28;20026;-74
2022/01/30 03:22:01;;;;;;;31.65;15.07;;;2.70;99.90;;;;;;5032533;28;20052;-75
2022/01/30 03:24:34;;;;;;;28.52;13.05;;;2.70;99.90;;;;;;5070320;27;20078;-74
2022/01/30 03:27:09;;;;;;;28.33;14.20;;;2.70;99.90;;;;;;5114914;27;20028;-75
2022/01/30 03:29:51;;;;;;;38.00;17.52;;;2.70;99.90;;;;;;5117131;27;20031;-75
2022/01/30 03:32:35;;;;;;;38.95;19.50;;;2.70;99.90;;;;;;5102444;27;20031;-74
2022/01/30 03:35:03;;;;;;;33.72;18.42;;;2.70;99.90;;;;;;5117162;27;20118;-75
2022/01/30 03:37:29;;;;;;;34.85;19.23;;;2.70;99.90;;;;;;5117688;27;20015;-75
2022/01/30 03:39:56;;;;;;;37.83;20.75;;;2.70;99.90;;;;;;5116621;27;20056;-71
2022/01/30 03:42:22;;;;;;;35.63;18.83;;;2.70;99.90;;;;;;5135292;27;20116;-74
2022/01/30 03:44:49;;;;;;;29.00;14.63;;;2.70;99.90;;;;;;5116834;27;20488;-72
2022/01/30 03:47:15;;;;;;;35.05;17.85;;;2.70;99.90;;;;;;5116943;27;20019;-74
2022/01/30 03:49:41;;;;;;;27.25;15.35;;;2.60;99.90;;;;;;5136554;27;20027;-75
2022/01/30 03:52:07;;;;;;;27.50;14.50;;;2.60;99.90;;;;;;5096628;27;20419;-74
2022/01/30 03:54:35;;;;;;;27.38;14.65;;;2.60;99.90;;;;;;5097012;28;20119;-72
2022/01/30 03:57:03;;;;;;;24.52;11.77;;;2.70;99.90;;;;;;5095450;28;20016;-71
2022/01/30 03:59:29;;;;;;;23.77;12.40;;;2.70;99.90;;;;;;5113805;28;20384;-74
2022/01/30 04:01:56;;;;;;;24.42;13.27;;;2.70;99.90;;;;;;5095339;28;20415;-74
2022/01/30 04:04:23;;;;;;;27.67;14.18;;;2.80;99.90;;;;;;5094794;28;20036;-74
2022/01/30 04:06:51;;;;;;;28.35;16.55;;;2.80;99.90;;;;;;5095470;28;20065;-74
2022/01/30 04:09:40;;;;;;;34.40;21.05;;;2.80;99.90;;;;;;5113134;28;20096;-74
2022/01/30 04:12:33;;;;;;;34.50;21.58;;;2.80;99.90;;;;;;5112068;28;20066;-74
2022/01/30 04:15:22;;;;;;;36.63;19.15;;;2.70;99.90;;;;;;5031444;28;20510;-74
2022/01/30 04:18:00;;;;;;;38.50;21.77;;;2.60;99.90;;;;;;5014496;28;20121;-73
2022/01/30 04:20:32;;;;;;;50.15;26.13;;;2.60;99.90;;;;;;5031106;28;20048;-74
2022/01/30 04:23:27;;;;;;;53.03;29.05;;;2.50;99.90;;;;;;5004186;28;20480;-74
2022/01/30 04:26:10;;;;;;;61.08;30.58;;;2.50;99.90;;;;;;4991404;28;20716;-75
2022/01/30 04:28:55;;;;;;;50.88;28.98;;;2.50;99.90;;;;;;4991981;28;20061;-75
2022/01/30 04:32:00;;;;;;;60.40;31.70;;;2.50;99.90;;;;;;4961767;28;20562;-74
2022/01/30 04:34:58;;;;;;;51.05;31.27;;;2.40;99.90;;;;;;4991437;28;20076;-73
2022/01/30 04:38:02;;;;;;;55.88;33.10;;;2.40;99.90;;;;;;4991499;28;20061;-73
2022/01/30 04:56:00;;;;;;;34.30;19.48;;;2.40;99.90;;;;;;5010005;28;20401;-74
2022/01/30 04:58:48;;;;;;;34.05;18.90;;;2.40;99.90;;;;;;4970732;28;20075;-75
2022/01/30 05:01:53;;;;;;;32.72;17.60;;;2.40;99.90;;;;;;5008479;28;20033;-75
2022/01/30 05:05:08;;;;;;;35.30;18.38;;;2.50;99.90;;;;;;4993110;28;20034;-75
2022/01/30 05:07:53;;;;;;;35.20;19.17;;;2.40;99.90;;;;;;4992759;28;20038;-75
2022/01/30 05:10:42;;;;;;;35.20;18.95;;;2.40;99.90;;;;;;4993190;28;20116;-75
2022/01/30 05:13:39;;;;;;;46.13;19.50;;;2.40;99.90;;;;;;4990237;28;20068;-74
2022/01/30 05:16:19;;;;;;;34.17;18.48;;;2.40;99.90;;;;;;5010500;28;20069;-76
2022/01/30 05:19:12;;;;;;;39.38;20.67;;;2.50;99.90;;;;;;4996946;28;20329;-72
2022/01/30 05:21:55;;;;;;;36.28;19.58;;;2.40;99.90;;;;;;5010209;28;20115;-74
2022/01/30 05:24:41;;;;;;;37.67;22.05;;;2.40;99.90;;;;;;5009579;28;20073;-76
2022/01/30 05:27:27;;;;;;;44.53;25.15;;;2.40;99.90;;;;;;5026268;28;20044;-78
2022/01/30 05:30:16;;;;;;;48.08;26.08;;;2.40;99.90;;;;;;5009168;28;20577;-74
2022/01/30 05:33:11;;;;;;;55.13;32.47;;;2.50;99.90;;;;;;4996325;28;20030;-74
2022/01/30 05:35:50;;;;;;;62.95;33.72;;;2.40;99.90;;;;;;5050824;28;20036;-70
2022/01/30 05:38:35;;;;;;;58.28;35.25;;;2.40;99.90;;;;;;5052462;28;20032;-77
2022/01/30 05:41:19;;;;;;;69.15;37.33;;;2.40;99.90;;;;;;5068444;28;20075;-77
2022/01/30 05:44:16;;;;;;;53.97;32.08;;;2.40;99.90;;;;;;5009257;28;20605;-71
2022/01/30 05:47:02;;;;;;;59.97;37.42;;;2.30;99.90;;;;;;5008649;28;20123;-74
2022/01/30 05:49:52;;;;;;;73.47;41.25;;;2.20;99.90;;;;;;4992765;28;20061;-76
2022/01/30 05:52:57;;;;;;;72.95;40.10;;;2.20;99.90;;;;;;5003399;28;20033;-76
2022/01/30 05:55:34;;;;;;;84.90;50.38;;;2.10;99.90;;;;;;5008863;28;20081;-74
2022/01/30 05:58:00;;;;;;;87.43;54.60;;;2.00;99.90;;;;;;4992381;28;20024;-71
2022/01/30 06:00:45;;;;;;;118.97;66.43;;;2.00;99.90;;;;;;4992045;28;20036;-74
2022/01/30 06:03:11;;;;;;;81.65;50.22;;;2.00;99.90;;;;;;5008956;28;20108;-74
2022/01/30 06:05:38;;;;;;;90.57;51.92;;;2.00;99.90;;;;;;4990216;28;20117;-74
2022/01/30 06:08:17;;;;;;;72.00;43.55;;;2.10;99.90;;;;;;5015038;28;20037;-73
2022/01/30 06:10:43;;;;;;;76.35;52.28;;;2.10;99.90;;;;;;5048125;28;20067;-72
2022/01/30 06:13:09;;;;;;;75.63;45.25;;;2.10;99.90;;;;;;5032115;28;20048;-76
2022/01/30 06:15:35;;;;;;;66.55;40.30;;;2.10;99.90;;;;;;5048898;28;20036;-74
2022/01/30 06:18:09;;;;;;;67.13;42.13;;;2.20;99.90;;;;;;5049040;28;20118;-75
2022/01/30 06:21:01;;;;;;;72.82;41.63;;;2.20;99.90;;;;;;5061891;28;20034;-74
2022/01/30 06:23:46;;;;;;;70.72;41.72;;;2.30;99.90;;;;;;5112315;28;20043;-74
2022/01/30 06:26:27;;;;;;;95.93;56.38;;;2.30;99.90;;;;;;5112015;28;20092;-73
2022/01/30 06:29:11;;;;;;;105.13;62.08;;;2.20;99.90;;;;;;5112000;28;20173;-73
2022/01/30 06:32:14;;;;;;;136.10;72.63;;;2.30;99.90;;;;;;5111312;28;20051;-73
2022/01/30 06:34:49;;;;;;;119.28;67.63;;;2.30;99.90;;;;;;5112421;28;20438;-75
2022/01/30 06:37:21;;;;;;;111.25;60.90;;;2.30;99.90;;;;;;5116445;28;20153;-73
2022/01/30 06:40:01;;;;;;;103.38;58.80;;;2.30;99.90;;;;;;5097575;28;20024;-74
2022/01/30 06:42:53;;;;;;;101.90;59.83;;;2.40;99.90;;;;;;5093442;28;20644;-76
2022/01/30 06:45:37;;;;;;;98.38;52.17;;;2.40;99.90;;;;;;5116278;28;20447;-76
2022/01/30 06:48:22;;;;;;;84.35;52.42;;;2.40;99.90;;;;;;5116288;28;20043;-76
2022/01/30 06:51:14;;;;;;;86.97;53.93;;;2.50;99.90;;;;;;5091299;28;20123;-75
2022/01/30 06:53:59;;;;;;;92.40;54.33;;;2.60;99.90;;;;;;5115983;28;20046;-77
2022/01/30 06:56:45;;;;;;;100.80;60.67;;;2.30;99.90;;;;;;5072388;28;20040;-76
2022/01/30 06:59:38;;;;;;;98.93;58.83;;;2.30;99.90;;;;;;5049739;28;20090;-75
2022/01/30 07:02:22;;;;;;;86.18;55.13;;;2.50;99.90;;;;;;5073044;28;20047;-74
2022/01/30 07:05:01;;;;;;;81.47;52.80;;;2.70;99.90;;;;;;5057241;28;20435;-76
2022/01/30 07:07:42;;;;;;;98.05;60.80;;;2.60;99.90;;;;;;5040622;28;20040;-74
2022/01/30 07:10:08;;;;;;;108.97;63.53;;;2.90;99.90;;;;;;5064035;28;20068;-76
2022/01/30 07:12:34;;;;;;;122.95;72.53;;;3.00;99.90;;;;;;5055038;28;20021;-75
2022/01/30 07:15:00;;;;;;;136.52;86.97;;;3.00;99.90;;;;;;5071823;28;20087;-74
2022/01/30 07:17:26;;;;;;;124.28;76.38;;;3.10;99.90;;;;;;5072263;28;20025;-73
2022/01/30 07:19:52;;;;;;;125.68;77.65;;;3.10;99.90;;;;;;5071992;28;20470;-75
2022/01/30 07:22:18;;;;;;;126.07;81.20;;;3.30;99.90;;;;;;5071934;28;20017;-75
2022/01/30 07:24:44;;;;;;;112.32;69.80;;;3.50;99.90;;;;;;5071043;28;20040;-79
2022/01/30 07:27:10;;;;;;;108.82;68.68;;;3.70;99.90;;;;;;5069877;28;20036;-78
2022/01/30 07:29:36;;;;;;;106.45;67.65;;;3.90;99.90;;;;;;5054368;28;20257;-79
2022/01/30 07:32:02;;;;;;;170.27;103.38;;;3.90;99.90;;;;;;5071697;28;20052;-73
2022/01/30 07:34:28;;;;;;;157.95;102.35;;;4.00;99.90;;;;;;5104086;27;20488;-75
2022/01/30 07:36:58;;;;;;;156.43;95.50;;;4.20;99.90;;;;;;5114438;28;20457;-74
2022/01/30 07:39:28;;;;;;;152.63;99.15;;;4.40;99.90;;;;;;5129216;27;20041;-76
2022/01/30 07:41:54;;;;;;;145.32;92.00;;;4.40;99.90;;;;;;5134319;27;20047;-76
2022/01/30 07:44:22;;;;;;;126.40;77.38;;;4.50;99.90;;;;;;5116249;27;20100;-74
2022/01/30 07:46:48;;;;;;;93.60;58.67;;;4.40;99.90;;;;;;5134353;27;20484;-72
2022/01/30 07:49:14;;;;;;;97.75;60.22;;;4.50;99.90;;;;;;5134554;27;20098;-75
2022/01/30 07:51:40;;;;;;;102.28;62.08;;;4.60;99.90;;;;;;5134395;27;20068;-74
2022/01/30 07:54:06;;;;;;;94.53;55.00;;;4.80;99.90;;;;;;5133805;27;20027;-77
2022/01/30 07:56:32;;;;;;;98.72;57.05;;;5.00;99.90;;;;;;5134034;27;20035;-76
2022/01/30 07:58:58;;;;;;;94.85;52.53;;;5.20;99.00;;;;;;5134405;27;20068;-76
2022/01/30 08:01:24;;;;;;;101.60;62.50;;;5.40;98.60;;;;;;5133945;27;20385;-78
2022/01/30 08:03:50;;;;;;;111.03;65.15;;;5.60;96.10;;;;;;5134043;27;20377;-76
2022/01/30 08:06:16;;;;;;;92.70;56.40;;;5.80;93.70;;;;;;5115528;27;20019;-77
2022/01/30 08:08:42;;;;;;;86.80;52.60;;;5.90;91.50;;;;;;5133673;27;20023;-79
2022/01/30 08:11:09;;;;;;;78.82;49.58;;;6.10;90.30;;;;;;5133257;27;20027;-76
2022/01/30 08:13:35;;;;;;;73.88;45.25;;;6.30;88.50;;;;;;5133079;27;20540;-76
2022/01/30 08:16:01;;;;;;;75.65;46.42;;;6.40;87.30;;;;;;5133893;27;20027;-78
2022/01/30 08:18:28;;;;;;;75.65;47.40;;;6.50;87.50;;;;;;5133655;27;20023;-74
2022/01/30 08:20:54;;;;;;;76.38;43.88;;;6.60;85.60;;;;;;5133665;27;20503;-73
2022/01/30 08:23:23;;;;;;;60.58;42.20;;;6.70;85.10;;;;;;5133735;27;20016;-76
2022/01/30 08:25:49;;;;;;;72.10;46.25;;;6.70;83.70;;;;;;5133642;27;20118;-78
2022/01/30 08:28:15;;;;;;;80.20;50.40;;;6.80;83.20;;;;;;5115349;27;20019;-77
2022/01/30 08:30:41;;;;;;;78.22;48.83;;;6.80;83.90;;;;;;5133801;27;20114;-77
2022/01/30 08:33:07;;;;;;;70.65;47.88;;;6.90;83.30;;;;;;5131253;27;20023;-76
2022/01/30 08:35:33;;;;;;;81.78;48.25;;;7.00;84.00;;;;;;5133711;27;20025;-76
2022/01/30 08:38:00;;;;;;;71.28;45.20;;;7.10;85.00;;;;;;5115742;27;20555;-77
2022/01/30 08:40:26;;;;;;;76.00;46.40;;;7.10;82.70;;;;;;5133444;27;20054;-76
2022/01/30 08:42:52;;;;;;;79.45;50.72;;;7.30;83.10;;;;;;5133944;27;20033;-74
2022/01/30 08:45:20;;;;;;;66.85;39.90;;;7.40;82.10;;;;;;5134137;27;20067;-74
2022/01/30 08:47:47;;;;;;;80.70;42.35;;;7.50;81.50;;;;;;5134121;27;20465;-78
2022/01/30 08:50:15;;;;;;;66.63;39.47;;;7.50;79.40;;;;;;5133976;27;20039;-74
2022/01/30 08:52:42;;;;;;;56.50;37.00;;;7.60;79.80;;;;;;5134144;27;20422;-72
2022/01/30 08:55:10;;;;;;;61.20;35.33;;;7.70;77.70;;;;;;5133695;27;20036;-73
2022/01/30 08:57:37;;;;;;;66.70;40.17;;;7.80;76.20;;;;;;5132313;27;20015;-73
2022/01/30 09:00:06;;;;;;;70.80;41.92;;;7.80;78.30;;;;;;5130658;27;20034;-74
2022/01/30 09:02:32;;;;;;;78.75;48.30;;;7.90;78.00;;;;;;5133668;27;20015;-72
2022/01/30 09:04:58;;;;;;;116.55;74.07;;;8.00;76.90;;;;;;5133871;27;20042;-71
2022/01/30 09:07:24;;;;;;;81.10;49.65;;;8.00;81.30;;;;;;5132864;27;20090;-74
2022/01/30 09:09:50;;;;;;;62.13;39.13;;;7.90;82.50;;;;;;5133038;27;20635;-75
2022/01/30 09:12:17;;;;;;;48.88;30.83;;;8.00;80.30;;;;;;5132764;27;20066;-74
2022/01/30 09:14:43;;;;;;;40.53;25.23;;;8.00;79.30;;;;;;5120814;27;20019;-71
2022/01/30 09:17:14;;;;;;;40.55;24.80;;;7.90;79.40;;;;;;5123395;27;20029;-75
2022/01/30 09:19:43;;;;;;;41.10;24.92;;;7.90;78.60;;;;;;5133509;27;20023;-77
2022/01/30 09:22:12;;;;;;;27.35;17.95;;;7.90;79.60;;;;;;5133500;27;20016;-77
2022/01/30 09:24:39;;;;;;;28.52;15.45;;;8.10;80.10;;;;;;5133116;27;20035;-74
2022/01/30 09:27:07;;;;;;;27.50;16.00;;;8.30;79.50;;;;;;5132199;27;20026;-76
2022/01/30 09:29:34;;;;;;;27.02;15.98;;;8.40;81.40;;;;;;5113860;27;20380;-76
2022/01/30 09:32:01;;;;;;;33.00;17.60;;;8.40;80.70;;;;;;5131303;27;20012;-77
2022/01/30 09:34:27;;;;;;;44.97;15.75;;;8.50;80.80;;;;;;5131389;27;20026;-74
2022/01/30 09:36:54;;;;;;;26.92;16.05;;;8.70;80.30;;;;;;5130283;27;20023;-74
2022/01/30 09:39:20;;;;;;;29.92;13.43;;;8.80;78.40;;;;;;5132333;27;20053;-73
2022/01/30 09:41:49;;;;;;;25.45;12.40;;;9.00;79.10;;;;;;5132281;27;20084;-75
2022/01/30 09:44:17;;;;;;;31.75;15.75;;;9.20;78.20;;;;;;5131934;27;20480;-74
2022/01/30 09:46:47;;;;;;;37.17;17.48;;;9.60;80.00;;;;;;5130132;27;20043;-77
2022/01/30 09:49:13;;;;;;;33.72;18.95;;;9.80;75.30;;;;;;5132998;27;20029;-77
2022/01/30 09:51:42;;;;;;;40.45;22.00;;;9.80;76.50;;;;;;5132259;27;20507;-75
2022/01/30 09:54:09;;;;;;;28.40;17.10;;;9.80;76.40;;;;;;5132850;27;20024;-76
2022/01/30 09:56:35;;;;;;;25.70;11.57;;;9.80;74.20;;;;;;5132308;27;20031;-76
2022/01/30 09:59:01;;;;;;;23.35;11.77;;;9.90;72.60;;;;;;5132858;27;20477;-77
2022/01/30 10:01:30;;;;;;;23.33;11.93;;;9.90;72.50;;;;;;5132674;27;20072;-76
2022/01/30 10:03:57;;;;;;;21.10;9.98;;;9.80;71.80;;;;;;5132758;27;20043;-75
2022/01/30 10:06:28;;;;;;;15.35;8.25;;;9.80;71.10;;;;;;5132564;27;20064;-77
2022/01/30 10:08:57;;;;;;;16.80;9.43;;;9.70;70.40;;;;;;5132994;27;20062;-78
2022/01/30 10:11:32;;;;;;;19.92;9.13;;;9.70;70.80;;;;;;5132801;27;20092;-75
2022/01/30 10:14:07;;;;;;;19.10;9.38;;;9.60;71.20;;;;;;5132565;27;20031;-76
2022/01/30 10:16:40;;;;;;;16.08;7.30;;;9.50;70.90;;;;;;5132633;27;20114;-76
2022/01/30 10:19:17;;;;;;;21.65;8.93;;;9.40;75.00;;;;;;5132374;27;20042;-77
2022/01/30 10:21:44;;;;;;;16.45;8.00;;;9.40;72.90;;;;;;5132400;27;20068;-77
2022/01/30 10:24:24;;;;;;;20.35;8.65;;;9.40;73.50;;;;;;5132337;27;20031;-75
2022/01/30 10:26:52;;;;;;;21.45;9.95;;;9.50;71.50;;;;;;5132392;27;20027;-74
2022/01/30 10:29:23;;;;;;;23.75;10.80;;;9.70;73.70;;;;;;5132794;27;20027;-75
2022/01/30 10:32:06;;;;;;;18.80;10.00;;;9.90;73.60;;;;;;5132641;27;20054;-75
2022/01/30 10:34:36;;;;;;;26.60;11.10;;;10.00;73.90;;;;;;5134008;28;20027;-75
2022/01/30 10:37:15;;;;;;;17.23;8.73;;;10.00;72.70;;;;;;5114298;28;20027;-75
2022/01/30 10:40:01;;;;;;;30.58;13.35;;;10.00;74.40;;;;;;5132308;28;20023;-74
2022/01/30 10:42:42;;;;;;;18.17;9.32;;;10.10;75.10;;;;;;5114717;28;20540;-74
2022/01/30 10:45:28;;;;;;;19.13;7.85;;;9.90;73.20;;;;;;5133879;28;20400;-74
2022/01/30 10:48:17;;;;;;;25.88;13.95;;;9.80;72.70;;;;;;5133873;28;20027;-76
2022/01/30 10:50:48;;;;;;;22.85;12.45;;;9.70;74.20;;;;;;5132068;28;20027;-75
2022/01/30 10:53:25;;;;;;;25.58;14.35;;;9.60;76.40;;;;;;5132262;28;20020;-76
2022/01/30 10:55:52;;;;;;;21.63;10.50;;;9.50;78.30;;;;;;5132389;28;20034;-75
2022/01/30 10:58:23;;;;;;;24.63;11.25;;;9.60;78.10;;;;;;5132028;28;20473;-76
2022/01/30 11:00:53;;;;;;;21.35;9.95;;;9.90;79.30;;;;;;5132071;27;20031;-77
2022/01/30 11:03:55;;;;;;;19.13;9.80;;;10.10;76.20;;;;;;5113877;28;20062;-77
2022/01/30 11:06:21;;;;;;;22.65;10.18;;;10.00;75.60;;;;;;5028689;28;20050;-77
2022/01/30 11:08:50;;;;;;;21.80;10.77;;;9.90;74.00;;;;;;5027975;28;20034;-77
2022/01/30 11:14:00;;;;;;;19.52;10.45;;;9.90;75.20;;;;;;5028484;28;20029;-78
2022/01/30 11:19:16;;;;;;;17.02;8.32;;;10.20;72.80;;;;;;5029705;28;20113;-77
2022/01/30 11:21:47;;;;;;;15.63;7.47;;;10.30;72.40;;;;;;4997251;28;20041;-75
2022/01/30 11:24:15;;;;;;;14.15;6.80;;;10.40;69.10;;;;;;5032050;28;20167;-75
2022/01/30 11:26:43;;;;;;;17.75;7.28;;;10.60;71.30;;;;;;5031199;28;20522;-76
2022/01/30 11:29:11;;;;;;;15.75;7.97;;;10.60;69.10;;;;;;5014965;28;20045;-77
2022/01/30 11:31:37;;;;;;;12.38;6.63;;;10.70;70.70;;;;;;5032206;28;20100;-74
2022/01/30 11:34:04;;;;;;;13.80;6.00;;;10.80;69.60;;;;;;5031520;28;20064;-76
2022/01/30 11:36:32;;;;;;;13.90;6.78;;;11.00;70.70;;;;;;5031866;28;20033;-76
2022/01/30 11:39:00;;;;;;;14.32;6.97;;;11.10;72.50;;;;;;5031682;28;20032;-78
2022/01/30 11:41:26;;;;;;;15.60;6.88;;;11.10;68.00;;;;;;5040595;28;20436;-75
2022/01/30 11:44:17;;;;;;;12.90;6.75;;;11.00;71.50;;;;;;5112483;28;20024;-78
2022/01/30 11:47:03;;;;;;;17.73;8.52;;;10.90;69.60;;;;;;5096869;28;20491;-77
2022/01/30 11:49:40;;;;;;;15.15;7.85;;;10.80;70.20;;;;;;5066144;28;20093;-75
2022/01/30 11:52:10;;;;;;;18.23;8.70;;;10.80;69.70;;;;;;5114967;28;20026;-78
2022/01/30 11:55:01;;;;;;;24.70;11.63;;;10.70;70.80;;;;;;5113878;28;20019;-76
2022/01/30 11:57:28;;;;;;;19.33;9.10;;;10.60;70.30;;;;;;5079951;28;20016;-79
2022/01/30 12:00:00;;;;;;;22.40;10.75;;;10.60;70.00;;;;;;5114507;28;20019;-77
2022/01/30 12:02:28;;;;;;;24.92;12.82;;;10.70;71.10;;;;;;5096433;28;20024;-78
2022/01/30 12:04:59;;;;;;;27.52;13.45;;;10.80;71.50;;;;;;5114841;28;20182;-74
2022/01/30 12:07:54;;;;;;;29.88;14.60;;;10.90;70.20;;;;;;5114609;28;20051;-77
2022/01/30 12:10:19;;;;;;;22.13;10.45;;;11.10;70.10;;;;;;5048339;28;20523;-78
2022/01/30 12:13:03;;;;;;;21.23;9.93;;;11.30;72.10;;;;;;5050717;28;20028;-76
2022/01/30 12:15:40;;;;;;;17.35;8.75;;;11.40;68.80;;;;;;5030335;28;20514;-76
2022/01/30 12:18:07;;;;;;;14.00;7.00;;;11.50;67.10;;;;;;5030201;28;20042;-76
2022/01/30 12:21:05;;;;;;;13.48;7.40;;;11.50;66.60;;;;;;5027579;28;20063;-76
2022/01/30 12:23:36;;;;;;;17.65;8.52;;;11.50;67.50;;;;;;5044415;28;20032;-78
2022/01/30 12:26:09;;;;;;;16.05;7.65;;;11.60;66.60;;;;;;5048237;28;20041;-77
2022/01/30 12:28:52;;;;;;;15.20;5.75;;;11.70;69.50;;;;;;5033339;28;20072;-76
2022/01/30 12:31:33;;;;;;;11.65;5.05;;;11.50;66.90;;;;;;5017455;28;20040;-77
2022/01/30 12:34:08;;;;;;;13.30;6.15;;;11.50;66.70;;;;;;5031367;28;20044;-77
2022/01/30 12:36:40;;;;;;;11.73;6.18;;;11.60;65.30;;;;;;5048949;28;20025;-77
2022/01/30 12:39:10;;;;;;;12.02;5.30;;;11.80;67.30;;;;;;5050663;28;20461;-76
2022/01/30 12:41:37;;;;;;;11.32;5.03;;;11.80;66.50;;;;;;5050846;28;20072;-76
2022/01/30 12:44:08;;;;;;;12.95;5.97;;;11.90;67.20;;;;;;5048925;28;20545;-76
2022/01/30 12:46:39;;;;;;;10.73;5.15;;;11.90;67.70;;;;;;5067658;28;20040;-76
2022/01/30 12:49:09;;;;;;;14.00;5.72;;;12.00;68.80;;;;;;5094525;28;20024;-76
2022/01/30 12:51:38;;;;;;;8.15;4.68;;;11.90;69.20;;;;;;5113557;28;20072;-76
2022/01/30 12:54:06;;;;;;;9.48;4.50;;;12.00;68.90;;;;;;5095401;28;20381;-77
2022/01/30 12:56:33;;;;;;;9.40;4.70;;;11.90;68.30;;;;;;5112930;28;20508;-76
2022/01/30 12:59:06;;;;;;;9.80;4.40;;;11.90;69.50;;;;;;5113378;28;20039;-78
2022/01/30 13:01:33;;;;;;;;;;;11.90;69.10;;;;;;5114237;28;20507;-76
2022/01/30 13:04:11;;;;;;;7.20;4.13;;;12.00;70.40;;;;;;5113145;28;19973;-77
2022/01/30 13:06:39;;;;;;;10.50;5.35;;;11.90;70.00;;;;;;5113242;28;20037;-76
2022/01/30 13:09:06;;;;;;;12.90;5.40;;;11.90;69.30;;;;;;5113128;28;20048;-76
2022/01/30 13:11:33;;;;;;;11.80;5.70;;;12.10;69.60;;;;;;5113315;28;20114;-77
2022/01/30 13:14:04;;;;;;;9.48;4.63;;;12.20;71.40;;;;;;5111660;28;20019;-77
2022/01/30 13:16:32;;;;;;;8.02;4.68;;;12.30;68.00;;;;;;5113256;28;20181;-77
2022/01/30 13:19:01;;;;;;;14.95;5.50;;;12.30;69.50;;;;;;5113174;28;20571;-79
2022/01/30 13:21:30;;;;;;;18.35;7.03;;;12.20;68.90;;;;;;5094539;28;20043;-80
2022/01/30 13:23:56;;;;;;;13.55;6.25;;;12.10;69.90;;;;;;5112991;28;20104;-78
2022/01/30 13:26:41;;;;;;;12.50;6.03;;;12.00;69.70;;;;;;5112784;28;20114;-77
2022/01/30 13:29:10;;;;;;;13.90;5.85;;;11.90;70.60;;;;;;5111446;28;20124;-78
2022/01/30 13:31:37;;;;;;;11.02;5.78;;;11.80;70.10;;;;;;5094917;28;20061;-78
2022/01/30 13:34:10;;;;;;;13.60;6.38;;;11.80;70.50;;;;;;5113045;28;20031;-77
2022/01/30 13:36:36;;;;;;;9.63;4.43;;;11.80;68.40;;;;;;5113018;28;20028;-77
2022/01/30 13:39:07;;;;;;;11.00;4.80;;;11.90;69.10;;;;;;5112480;28;20098;-77
2022/01/30 13:41:43;;;;;;;9.43;4.60;;;12.00;70.40;;;;;;5125695;27;20403;-74
2022/01/30 13:44:22;;;;;;;9.60;4.07;;;12.10;68.20;;;;;;5132490;27;20039;-78
2022/01/30 13:47:02;;;;;;;15.43;5.35;;;12.20;69.50;;;;;;5132956;27;20102;-77
2022/01/30 13:49:30;;;;;;;10.45;4.20;;;12.30;68.60;;;;;;5133052;27;20023;-79
2022/01/30 13:52:04;;;;;;;7.90;3.72;;;12.50;68.40;;;;;;5132806;27;20433;-78
2022/01/30 13:54:30;;;;;;;7.30;3.10;;;12.50;67.90;;;;;;5132923;27;20031;-77
2022/01/30 13:57:10;;;;;;;6.93;3.20;;;12.50;69.10;;;;;;5132928;27;20423;-77
2022/01/30 13:59:37;;;;;;;9.43;4.05;;;12.50;68.90;;;;;;5132650;27;20372;-76
2022/01/30 14:02:07;;;;;;;8.55;3.22;;;12.40;68.70;;;;;;5132377;27;20107;-77